sensor_id;sensor_type;location;lat;lon;timestamp;temperature;humidity
1063;DHT22;520;50.932;6.962;2022-10-16T00:00:26;16.80;99.90
1063;DHT22;520;50.932;6.962;2022-10-16T00:03:25;16.60;99.90
1063;DHT22;520;50.932;6.962;2022-10-16T00:06:02;16.40;99.90
1063;DHT22;520;50.932;6.962;2022-10-16T00:08:52;16.30;99.90
1063;DHT22;520;50.932;6.962;2022-10-16T00:12:15;16.40;99.90
1063;DHT22;520;50.932;6.962;2022-10-16T00:15:07;16.70;99.90
1063;DHT22;520;50.932;6.962;2022-10-16T00:21:24;16.80;99.90
1063;DHT22;520;50.932;6.962;2022-10-16T00:24:19;16.70;99.90
1063;DHT22;520;50.932;6.962;2022-10-16T00:30:55;16.80;99.90
1063;DHT22;520;50.932;6.962;2022-10-16T00:33:43;16.70;99.90
1063;DHT22;520;50.932;6.962;2022-10-16T00:36:24;16.70;99.90
1063;DHT22;520;50.932;6.962;2022-10-16T00:39:43;16.60;99.90
1063;DHT22;520;50.932;6.962;2022-10-16T00:42:53;16.60;99.90
1063;DHT22;520;50.932;6.962;2022-10-16T00:46:08;16.60;99.90
1063;DHT22;520;50.932;6.962;2022-10-16T00:49:01;16.60;99.90
1063;DHT22;520;50.932;6.962;2022-10-16T00:52:15;16.60;99.90
1063;DHT22;520;50.932;6.962;2022-10-16T01:01:29;16.50;99.90
1063;DHT22;520;50.932;6.962;2022-10-16T01:08:18;16.50;99.90
1063;DHT22;520;50.932;6.962;2022-10-16T01:12:00;16.60;99.90
1063;DHT22;520;50.932;6.962;2022-10-16T01:21:24;16.40;99.90
1063;DHT22;520;50.932;6.962;2022-10-16T01:27:35;16.40;99.90
1063;DHT22;520;50.932;6.962;2022-10-16T01:30:39;16.40;99.90
1063;DHT22;520;50.932;6.962;2022-10-16T01:34:22;16.30;99.90
1063;DHT22;520;50.932;6.962;2022-10-16T01:38:10;16.50;99.90
1063;DHT22;520;50.932;6.962;2022-10-16T01:41:43;16.50;99.90
1063;DHT22;520;50.932;6.962;2022-10-16T01:45:08;16.50;99.90
1063;DHT22;520;50.932;6.962;2022-10-16T01:48:14;16.50;99.90
1063;DHT22;520;50.932;6.962;2022-10-16T01:51:10;16.50;99.90
1063;DHT22;520;50.932;6.962;2022-10-16T01:54:01;16.40;99.90
1063;DHT22;520;50.932;6.962;2022-10-16T01:59:54;16.30;99.90
1063;DHT22;520;50.932;6.962;2022-10-16T02:02:59;16.30;99.90
1063;DHT22;520;50.932;6.962;2022-10-16T02:06:00;16.40;99.90
1063;DHT22;520;50.932;6.962;2022-10-16T02:08:57;16.50;99.90
1063;DHT22;520;50.932;6.962;2022-10-16T02:14:45;16.40;99.90
1063;DHT22;520;50.932;6.962;2022-10-16T02:17:32;16.50;99.90
1063;DHT22;520;50.932;6.962;2022-10-16T02:20:12;16.50;99.90
1063;DHT22;520;50.932;6.962;2022-10-16T02:23:15;16.60;99.90
1063;DHT22;520;50.932;6.962;2022-10-16T02:26:06;16.50;99.90
1063;DHT22;520;50.932;6.962;2022-10-16T02:29:14;16.50;99.90
1063;DHT22;520;50.932;6.962;2022-10-16T02:35:54;16.50;99.90
1063;DHT22;520;50.932;6.962;2022-10-16T02:42:34;16.50;99.90
1063;DHT22;520;50.932;6.962;2022-10-16T02:51:22;16.60;99.90
1063;DHT22;520;50.932;6.962;2022-10-16T03:00:51;16.40;99.90
1063;DHT22;520;50.932;6.962;2022-10-16T03:03:57;16.40;99.90
1063;DHT22;520;50.932;6.962;2022-10-16T03:06:47;16.60;99.90
1063;DHT22;520;50.932;6.962;2022-10-16T03:09:52;16.30;99.90
1063;DHT22;520;50.932;6.962;2022-10-16T03:13:02;16.30;99.90
1063;DHT22;520;50.932;6.962;2022-10-16T03:16:00;16.60;99.90
1063;DHT22;520;50.932;6.962;2022-10-16T03:18:55;16.60;99.90
1063;DHT22;520;50.932;6.962;2022-10-16T03:21:43;16.60;99.90
1063;DHT22;520;50.932;6.962;2022-10-16T03:24:44;16.40;99.90
1063;DHT22;520;50.932;6.962;2022-10-16T03:27:45;16.40;99.90
1063;DHT22;520;50.932;6.962;2022-10-16T03:30:36;16.30;99.90
1063;DHT22;520;50.932;6.962;2022-10-16T03:33:45;16.50;99.90
1063;DHT22;520;50.932;6.962;2022-10-16T03:36:31;16.40;99.90
1063;DHT22;520;50.932;6.962;2022-10-16T03:39:11;16.50;99.90
1063;DHT22;520;50.932;6.962;2022-10-16T03:42:16;16.30;99.90
1063;DHT22;520;50.932;6.962;2022-10-16T03:45:05;16.30;99.90
1063;DHT22;520;50.932;6.962;2022-10-16T03:48:02;16.20;99.90
1063;DHT22;520;50.932;6.962;2022-10-16T03:50:44;16.40;99.90
1063;DHT22;520;50.932;6.962;2022-10-16T03:54:03;16.20;99.90
1063;DHT22;520;50.932;6.962;2022-10-16T04:00:39;16.30;99.90
1063;DHT22;520;50.932;6.962;2022-10-16T04:03:21;16.40;99.90
1063;DHT22;520;50.932;6.962;2022-10-16T04:06:40;16.30;99.90
1063;DHT22;520;50.932;6.962;2022-10-16T04:09:35;16.50;99.90
1063;DHT22;520;50.932;6.962;2022-10-16T04:12:22;16.40;99.90
1063;DHT22;520;50.932;6.962;2022-10-16T04:15:12;16.30;99.90
1063;DHT22;520;50.932;6.962;2022-10-16T04:18:24;16.20;99.90
1063;DHT22;520;50.932;6.962;2022-10-16T04:21:24;16.40;99.90
1063;DHT22;520;50.932;6.962;2022-10-16T04:24:20;16.40;99.90
1063;DHT22;520;50.932;6.962;2022-10-16T04:30:48;16.50;99.90
1063;DHT22;520;50.932;6.962;2022-10-16T04:36:47;16.40;99.90
1063;DHT22;520;50.932;6.962;2022-10-16T04:39:40;16.50;99.90
1063;DHT22;520;50.932;6.962;2022-10-16T04:42:26;16.40;99.90
1063;DHT22;520;50.932;6.962;2022-10-16T04:48:37;16.30;99.90
1063;DHT22;520;50.932;6.962;2022-10-16T04:51:32;16.30;99.90
1063;DHT22;520;50.932;6.962;2022-10-16T04:57:47;16.40;99.90
1063;DHT22;520;50.932;6.962;2022-10-16T05:00:49;16.30;99.90
1063;DHT22;520;50.932;6.962;2022-10-16T05:07:21;16.30;99.90
1063;DHT22;520;50.932;6.962;2022-10-16T05:10:20;16.30;99.90
1063;DHT22;520;50.932;6.962;2022-10-16T05:13:42;16.40;99.90
1063;DHT22;520;50.932;6.962;2022-10-16T05:16:31;16.30;99.90
1063;DHT22;520;50.932;6.962;2022-10-16T05:22:35;16.30;99.90
1063;DHT22;520;50.932;6.962;2022-10-16T05:25:13;16.50;99.90
1063;DHT22;520;50.932;6.962;2022-10-16T05:33:42;16.40;99.90
1063;DHT22;520;50.932;6.962;2022-10-16T05:40:01;16.40;99.90
1063;DHT22;520;50.932;6.962;2022-10-16T05:42:50;16.50;99.90
1063;DHT22;520;50.932;6.962;2022-10-16T05:46:11;16.50;99.90
1063;DHT22;520;50.932;6.962;2022-10-16T05:48:51;16.50;99.90
1063;DHT22;520;50.932;6.962;2022-10-16T05:52:05;16.40;99.90
1063;DHT22;520;50.932;6.962;2022-10-16T05:54:57;16.30;99.90
1063;DHT22;520;50.932;6.962;2022-10-16T05:58:05;16.30;99.90
1063;DHT22;520;50.932;6.962;2022-10-16T06:00:54;16.20;99.90
1063;DHT22;520;50.932;6.962;2022-10-16T06:04:19;16.30;99.90
1063;DHT22;520;50.932;6.962;2022-10-16T06:07:10;16.20;99.90
1063;DHT22;520;50.932;6.962;2022-10-16T06:09:57;16.10;99.90
1063;DHT22;520;50.932;6.962;2022-10-16T06:12:47;16.20;99.90
1063;DHT22;520;50.932;6.962;2022-10-16T06:15:33;16.30;99.90
1063;DHT22;520;50.932;6.962;2022-10-16T06:22:14;16.20;99.90
1063;DHT22;520;50.932;6.962;2022-10-16T06:33:11;16.30;99.90
1063;DHT22;520;50.932;6.962;2022-10-16T06:36:20;16.50;99.90
1063;DHT22;520;50.932;6.962;2022-10-16T06:39:44;16.50;99.90
1063;DHT22;520;50.932;6.962;2022-10-16T06:43:10;16.50;99.90
1063;DHT22;520;50.932;6.962;2022-10-16T06:50:09;16.60;99.90
1063;DHT22;520;50.932;6.962;2022-10-16T06:53:27;16.50;99.90
1063;DHT22;520;50.932;6.962;2022-10-16T06:56:38;16.70;99.90
1063;DHT22;520;50.932;6.962;2022-10-16T07:02:53;16.60;99.90
1063;DHT22;520;50.932;6.962;2022-10-16T07:06:17;16.40;99.90
1063;DHT22;520;50.932;6.962;2022-10-16T07:16:39;16.80;99.90
1063;DHT22;520;50.932;6.962;2022-10-16T07:19:33;16.90;99.90
1063;DHT22;520;50.932;6.962;2022-10-16T07:22:16;17.60;99.90
1063;DHT22;520;50.932;6.962;2022-10-16T07:25:23;19.70;99.90
1063;DHT22;520;50.932;6.962;2022-10-16T07:28:15;19.40;98.90
1063;DHT22;520;50.932;6.962;2022-10-16T07:31:09;18.50;99.90
1063;DHT22;520;50.932;6.962;2022-10-16T07:46:09;17.10;99.90
1063;DHT22;520;50.932;6.962;2022-10-16T07:49:36;17.50;99.90
1063;DHT22;520;50.932;6.962;2022-10-16T07:53:01;18.00;99.90
1063;DHT22;520;50.932;6.962;2022-10-16T08:00:04;18.30;99.90
1063;DHT22;520;50.932;6.962;2022-10-16T08:03:36;18.10;99.90
1063;DHT22;520;50.932;6.962;2022-10-16T08:06:55;17.80;99.90
1063;DHT22;520;50.932;6.962;2022-10-16T08:10:15;17.80;99.90
1063;DHT22;520;50.932;6.962;2022-10-16T08:13:13;18.00;99.90
1063;DHT22;520;50.932;6.962;2022-10-16T08:16:59;17.70;99.90
1063;DHT22;520;50.932;6.962;2022-10-16T08:20:09;17.70;99.90
1063;DHT22;520;50.932;6.962;2022-10-16T08:23:37;17.60;99.90
1063;DHT22;520;50.932;6.962;2022-10-16T08:26:56;17.90;99.90
1063;DHT22;520;50.932;6.962;2022-10-16T08:33:59;18.40;99.90
1063;DHT22;520;50.932;6.962;2022-10-16T08:40:14;18.60;99.90
1063;DHT22;520;50.932;6.962;2022-10-16T08:54:45;18.80;99.70
1063;DHT22;520;50.932;6.962;2022-10-16T09:05:30;18.70;99.80
1063;DHT22;520;50.932;6.962;2022-10-16T09:21:48;18.60;99.30
1063;DHT22;520;50.932;6.962;2022-10-16T09:28:51;19.00;96.90
1063;DHT22;520;50.932;6.962;2022-10-16T09:31:54;18.50;98.00
1063;DHT22;520;50.932;6.962;2022-10-16T09:34:50;19.00;98.40
1063;DHT22;520;50.932;6.962;2022-10-16T09:38:12;20.50;95.90
1063;DHT22;520;50.932;6.962;2022-10-16T09:42:01;21.30;93.60
1063;DHT22;520;50.932;6.962;2022-10-16T09:45:38;24.10;83.90
1063;DHT22;520;50.932;6.962;2022-10-16T09:59:17;22.70;81.20
1063;DHT22;520;50.932;6.962;2022-10-16T10:02:23;22.10;86.30
1063;DHT22;520;50.932;6.962;2022-10-16T10:05:34;22.10;84.00
1063;DHT22;520;50.932;6.962;2022-10-16T10:08:32;21.40;86.10
1063;DHT22;520;50.932;6.962;2022-10-16T10:15:27;21.30;88.30
1063;DHT22;520;50.932;6.962;2022-10-16T10:18:43;21.00;89.10
1063;DHT22;520;50.932;6.962;2022-10-16T10:22:10;20.40;90.30
1063;DHT22;520;50.932;6.962;2022-10-16T10:39:22;20.60;90.80
1063;DHT22;520;50.932;6.962;2022-10-16T11:17:13;21.60;83.50
1063;DHT22;520;50.932;6.962;2022-10-16T11:39:33;21.60;82.00
1063;DHT22;520;50.932;6.962;2022-10-16T11:42:34;21.30;82.60
1063;DHT22;520;50.932;6.962;2022-10-16T11:46:01;21.00;84.50
1063;DHT22;520;50.932;6.962;2022-10-16T11:49:13;21.00;84.20
1063;DHT22;520;50.932;6.962;2022-10-16T11:52:25;21.60;84.50
1063;DHT22;520;50.932;6.962;2022-10-16T12:08:37;21.30;84.50
1063;DHT22;520;50.932;6.962;2022-10-16T12:14:59;21.70;81.90
1063;DHT22;520;50.932;6.962;2022-10-16T12:21:36;21.30;82.30
1063;DHT22;520;50.932;6.962;2022-10-16T12:24:41;21.20;82.60
1063;DHT22;520;50.932;6.962;2022-10-16T12:46:59;22.20;78.10
1063;DHT22;520;50.932;6.962;2022-10-16T13:00:42;22.40;76.60
1063;DHT22;520;50.932;6.962;2022-10-16T13:32:13;21.70;81.30
1063;DHT22;520;50.932;6.962;2022-10-16T13:35:22;21.70;81.20
1063;DHT22;520;50.932;6.962;2022-10-16T13:42:14;22.00;80.70
1063;DHT22;520;50.932;6.962;2022-10-16T13:45:54;22.00;80.40
1063;DHT22;520;50.932;6.962;2022-10-16T13:52:26;22.00;80.90
1063;DHT22;520;50.932;6.962;2022-10-16T13:55:22;22.10;81.30
1063;DHT22;520;50.932;6.962;2022-10-16T13:58:32;22.30;80.90
1063;DHT22;520;50.932;6.962;2022-10-16T14:01:43;22.10;80.80
1063;DHT22;520;50.932;6.962;2022-10-16T14:04:34;22.00;81.40
1063;DHT22;520;50.932;6.962;2022-10-16T14:07:37;21.80;82.20
1063;DHT22;520;50.932;6.962;2022-10-16T14:13:51;21.60;83.40
1063;DHT22;520;50.932;6.962;2022-10-16T14:16:48;21.60;83.90
1063;DHT22;520;50.932;6.962;2022-10-16T14:36:52;21.50;86.30
1063;DHT22;520;50.932;6.962;2022-10-16T14:39:54;21.80;87.10
1063;DHT22;520;50.932;6.962;2022-10-16T14:46:36;21.80;88.00
1063;DHT22;520;50.932;6.962;2022-10-16T15:01:20;21.10;90.50
1063;DHT22;520;50.932;6.962;2022-10-16T15:23:59;21.30;91.80
1063;DHT22;520;50.932;6.962;2022-10-16T15:26:58;21.40;91.90
1063;DHT22;520;50.932;6.962;2022-10-16T15:30:19;21.30;91.90
1063;DHT22;520;50.932;6.962;2022-10-16T15:33:28;21.10;92.40
1063;DHT22;520;50.932;6.962;2022-10-16T15:36:13;20.90;92.80
1063;DHT22;520;50.932;6.962;2022-10-16T15:39:13;21.30;92.50
1063;DHT22;520;50.932;6.962;2022-10-16T15:42:10;21.50;92.10
1063;DHT22;520;50.932;6.962;2022-10-16T15:49:51;21.30;92.70
1063;DHT22;520;50.932;6.962;2022-10-16T16:31:32;20.70;95.80
1063;DHT22;520;50.932;6.962;2022-10-16T16:35:02;20.60;95.80
1063;DHT22;520;50.932;6.962;2022-10-16T17:05:27;20.40;99.00
1063;DHT22;520;50.932;6.962;2022-10-16T17:08:53;20.20;99.50
1063;DHT22;520;50.932;6.962;2022-10-16T17:42:22;19.90;99.90
1063;DHT22;520;50.932;6.962;2022-10-16T17:46:02;19.80;99.90
1063;DHT22;520;50.932;6.962;2022-10-16T17:59:45;19.90;99.90
1063;DHT22;520;50.932;6.962;2022-10-16T18:18:26;19.80;99.90
1063;DHT22;520;50.932;6.962;2022-10-16T18:21:45;19.80;99.90
1063;DHT22;520;50.932;6.962;2022-10-16T18:28:59;19.90;99.90
1063;DHT22;520;50.932;6.962;2022-10-16T18:36:15;19.70;99.90
1063;DHT22;520;50.932;6.962;2022-10-16T18:43:27;19.80;99.90
1063;DHT22;520;50.932;6.962;2022-10-16T18:50:15;19.60;99.90
1063;DHT22;520;50.932;6.962;2022-10-16T18:53:29;19.60;99.90
1063;DHT22;520;50.932;6.962;2022-10-16T19:15:54;19.50;99.90
1063;DHT22;520;50.932;6.962;2022-10-16T19:18:53;19.20;99.90
1063;DHT22;520;50.932;6.962;2022-10-16T19:28:48;19.20;99.90
1063;DHT22;520;50.932;6.962;2022-10-16T19:31:40;19.10;99.90
1063;DHT22;520;50.932;6.962;2022-10-16T19:34:51;19.10;99.90
1063;DHT22;520;50.932;6.962;2022-10-16T19:37:54;19.50;99.90
1063;DHT22;520;50.932;6.962;2022-10-16T19:44:20;19.60;99.90
1063;DHT22;520;50.932;6.962;2022-10-16T19:47:29;19.80;99.90
1063;DHT22;520;50.932;6.962;2022-10-16T19:50:14;19.60;99.90
1063;DHT22;520;50.932;6.962;2022-10-16T19:53:00;19.70;99.90
1063;DHT22;520;50.932;6.962;2022-10-16T20:05:29;19.60;99.90
1063;DHT22;520;50.932;6.962;2022-10-16T20:08:40;19.60;99.90
1063;DHT22;520;50.932;6.962;2022-10-16T20:11:50;19.60;99.90
1063;DHT22;520;50.932;6.962;2022-10-16T20:14:55;19.40;99.90
1063;DHT22;520;50.932;6.962;2022-10-16T20:21:35;19.70;99.90
1063;DHT22;520;50.932;6.962;2022-10-16T20:24:38;19.50;99.90
1063;DHT22;520;50.932;6.962;2022-10-16T20:27:37;19.30;99.90
1063;DHT22;520;50.932;6.962;2022-10-16T20:37:53;19.10;99.90
1063;DHT22;520;50.932;6.962;2022-10-16T20:41:17;19.10;99.90
1063;DHT22;520;50.932;6.962;2022-10-16T20:47:19;19.10;99.90
1063;DHT22;520;50.932;6.962;2022-10-16T20:50:01;19.40;99.90
1063;DHT22;520;50.932;6.962;2022-10-16T20:53:36;19.40;99.90
1063;DHT22;520;50.932;6.962;2022-10-16T20:59:56;19.10;99.90
1063;DHT22;520;50.932;6.962;2022-10-16T21:02:29;19.00;99.90
1063;DHT22;520;50.932;6.962;2022-10-16T21:05:02;18.70;99.90
1063;DHT22;520;50.932;6.962;2022-10-16T21:07:35;18.70;99.90
1063;DHT22;520;50.932;6.962;2022-10-16T21:13:16;19.00;99.90
1063;DHT22;520;50.932;6.962;2022-10-16T21:15:45;18.80;99.90
1063;DHT22;520;50.932;6.962;2022-10-16T21:18:15;18.70;99.90
1063;DHT22;520;50.932;6.962;2022-10-16T21:20:45;18.70;99.90
1063;DHT22;520;50.932;6.962;2022-10-16T21:23:15;18.70;99.90
1063;DHT22;520;50.932;6.962;2022-10-16T21:25:49;18.60;99.90
1063;DHT22;520;50.932;6.962;2022-10-16T21:28:22;18.60;99.90
1063;DHT22;520;50.932;6.962;2022-10-16T21:30:49;18.60;99.90
1063;DHT22;520;50.932;6.962;2022-10-16T21:33:18;18.60;99.90
1063;DHT22;520;50.932;6.962;2022-10-16T21:35:51;18.60;99.90
1063;DHT22;520;50.932;6.962;2022-10-16T21:38:18;18.50;99.90
1063;DHT22;520;50.932;6.962;2022-10-16T21:40:48;18.40;99.90
1063;DHT22;520;50.932;6.962;2022-10-16T21:43:24;18.50;99.90
1063;DHT22;520;50.932;6.962;2022-10-16T21:45:55;18.60;99.90
1063;DHT22;520;50.932;6.962;2022-10-16T21:48:31;18.60;99.90
1063;DHT22;520;50.932;6.962;2022-10-16T21:51:05;18.60;99.90
1063;DHT22;520;50.932;6.962;2022-10-16T21:53:44;18.60;99.90
1063;DHT22;520;50.932;6.962;2022-10-16T21:56:16;18.60;99.90
1063;DHT22;520;50.932;6.962;2022-10-16T21:58:48;18.50;99.90
1063;DHT22;520;50.932;6.962;2022-10-16T22:01:22;18.40;99.90
1063;DHT22;520;50.932;6.962;2022-10-16T22:03:58;18.50;99.90
1063;DHT22;520;50.932;6.962;2022-10-16T22:10:27;18.60;99.90
1063;DHT22;520;50.932;6.962;2022-10-16T22:17:02;18.40;99.90
1063;DHT22;520;50.932;6.962;2022-10-16T22:23:02;18.50;99.90
1063;DHT22;520;50.932;6.962;2022-10-16T22:26:07;18.50;99.90
1063;DHT22;520;50.932;6.962;2022-10-16T22:29:11;18.50;99.90
1063;DHT22;520;50.932;6.962;2022-10-16T22:36:12;18.50;99.90
1063;DHT22;520;50.932;6.962;2022-10-16T22:38:59;18.30;99.90
1063;DHT22;520;50.932;6.962;2022-10-16T22:41:31;18.30;99.90
1063;DHT22;520;50.932;6.962;2022-10-16T22:47:08;18.40;99.90
1063;DHT22;520;50.932;6.962;2022-10-16T22:49:40;18.30;99.90
1063;DHT22;520;50.932;6.962;2022-10-16T22:52:20;18.40;99.90
1063;DHT22;520;50.932;6.962;2022-10-16T22:54:58;18.40;99.90
1063;DHT22;520;50.932;6.962;2022-10-16T22:57:31;18.40;99.90
1063;DHT22;520;50.932;6.962;2022-10-16T23:00:12;18.40;99.90
1063;DHT22;520;50.932;6.962;2022-10-16T23:02:49;18.40;99.90
1063;DHT22;520;50.932;6.962;2022-10-16T23:05:22;18.30;99.90
